Time;durP1;ratioP1;P1;durP2;ratioP2;P2;SDS_P1;SDS_P2;PMS_P1;PMS_P2;Temp;Humidity;BMP_temperature;BMP_pressure;BME280_temperature;BME280_humidity;BME280_pressure;Samples;Min_cycle;Max_cycle;Signal;HPM_P1;HPM_P2
2023/12/11 00:00:26;;;;;;;;;;;;;;;4.43;62.56;99804.16;4387636;32;33701;-80
2023/12/11 00:02:58;;;;;;;;;;;;;;;4.53;61.59;99803.09;4392593;32;35322;-80
2023/12/11 00:05:25;;;;;;;;;;;;;;;4.49;61.18;99799.66;4383809;32;33597;-80
2023/12/11 00:07:52;;;;;;;;;;;;;;;3.97;62.40;99792.75;4417379;32;34042;-79
2023/12/11 00:10:20;;;;;;;;;;;;;;;3.87;62.75;99785.97;4400933;32;33728;-80
2023/12/11 00:12:47;;;;;;;;;;;;;;;3.87;62.88;99785.13;4412523;32;34251;-80
2023/12/11 00:15:15;;;;;;;;;;;;;;;3.69;63.51;99783.66;4401669;32;32839;-80
2023/12/11 00:17:43;;;;;;;;;;;;;;;3.76;63.08;99782.69;4418291;32;33741;-81
2023/12/11 00:20:11;;;;;;;;;;;;;;;3.71;63.65;99785.38;4378647;32;33488;-80
2023/12/11 00:22:38;;;;;;;;;;;;;;;3.76;63.43;99767.88;4389615;32;33318;-80
2023/12/11 00:25:07;;;;;;;;;;;;;;;3.64;63.73;99777.66;4418971;32;33410;-79
2023/12/11 00:27:34;;;;;;;;;;;;;;;3.56;63.88;99769.91;4393921;32;32346;-80
2023/12/11 00:30:02;;;;;;;;;;;;;;;3.71;63.48;99758.41;4403247;32;34812;-80
2023/12/11 00:32:29;;;;;;;;;;;;;;;3.69;63.47;99758.41;4400597;32;34210;-80
2023/12/11 00:34:57;;;;;;;;;;;;;;;3.78;63.07;99753.03;4393349;32;32992;-81
2023/12/11 00:37:24;;;;;;;;;;;;;;;3.79;63.11;99759.97;4393799;32;34299;-81
2023/12/11 00:39:52;;;;;;;;;;;;;;;3.72;62.88;99760.97;4404616;32;34963;-81
2023/12/11 00:42:19;;;;;;;;;;;;;;;3.81;62.90;99765.19;4396412;32;36073;-81
2023/12/11 00:44:47;;;;;;;;;;;;;;;3.59;63.19;99755.06;4391333;32;33710;-81
2023/12/11 00:47:14;;;;;;;;;;;;;;;3.50;63.91;99746.53;4418911;32;34107;-81
2023/12/11 00:49:42;;;;;;;;;;;;;;;3.59;63.30;99747.25;4418189;32;33966;-81
2023/12/11 00:52:10;;;;;;;;;;;;;;;3.29;64.23;99747.75;4406614;32;34061;-81
2023/12/11 00:54:37;;;;;;;;;;;;;;;3.42;64.38;99738.84;4418610;32;33085;-81
2023/12/11 00:57:05;;;;;;;;;;;;;;;3.71;63.27;99737.50;4371911;32;32571;-81
2023/12/11 00:59:32;;;;;;;;;;;;;;;3.56;63.66;99739.47;4376145;32;33628;-80
2023/12/11 01:02:00;;;;;;;;;;;;;;;3.50;63.52;99749.16;4393590;32;33779;-80
2023/12/11 01:04:27;;;;;;;;;;;;;;;3.48;64.13;99736.13;4415289;32;33062;-80
2023/12/11 01:06:55;;;;;;;;;;;;;;;3.21;65.24;99742.63;4406592;32;33314;-80
2023/12/11 01:09:23;;;;;;;;;;;;;;;3.45;64.24;99745.75;4388408;32;34181;-81
2023/12/11 01:11:50;;;;;;;;;;;;;;;3.45;64.80;99737.91;4392258;32;34921;-81
2023/12/11 01:14:17;;;;;;;;;;;;;;;3.28;65.16;99746.88;4373389;32;32225;-80
2023/12/11 01:16:45;;;;;;;;;;;;;;;3.17;65.96;99738.31;4384782;32;34115;-80
2023/12/11 01:19:12;;;;;;;;;;;;;;;3.28;66.08;99743.41;4376632;32;32979;-82
2023/12/11 01:21:39;;;;;;;;;;;;;;;3.28;65.98;99749.50;4382482;32;34671;-82
2023/12/11 01:24:07;;;;;;;;;;;;;;;3.43;65.78;99750.16;4375147;32;32336;-82
2023/12/11 01:26:35;;;;;;;;;;;;;;;3.20;66.59;99746.12;4410855;32;34262;-82
2023/12/11 01:29:02;;;;;;;;;;;;;;;3.46;65.93;99742.25;4390164;32;34175;-81
2023/12/11 01:31:31;;;;;;;;;;;;;;;3.59;65.87;99733.34;4393546;32;33933;-82
2023/12/11 01:33:58;;;;;;;;;;;;;;;3.45;66.19;99736.16;4405297;32;33765;-82
2023/12/11 01:36:25;;;;;;;;;;;;;;;3.62;65.74;99735.06;4393150;32;33406;-80
2023/12/11 01:38:53;;;;;;;;;;;;;;;3.52;66.32;99732.59;4405682;32;33835;-80
2023/12/11 01:41:20;;;;;;;;;;;;;;;3.44;66.41;99723.16;4419010;32;33918;-79
2023/12/11 01:43:55;;;;;;;;;;;;;;;3.60;65.96;99706.34;4417931;32;32727;-79
2023/12/11 01:46:23;;;;;;;;;;;;;;;3.53;66.53;99707.34;4417937;32;34758;-79
2023/12/11 01:48:51;;;;;;;;;;;;;;;3.59;66.45;99695.03;4388604;32;34070;-80
2023/12/11 01:51:19;;;;;;;;;;;;;;;3.04;68.53;99706.38;4412425;32;34288;-80
2023/12/11 01:53:48;;;;;;;;;;;;;;;3.42;67.47;99697.09;4417596;32;33222;-81
2023/12/11 01:56:16;;;;;;;;;;;;;;;3.52;67.06;99698.66;4417967;32;33592;-82
2023/12/11 01:58:45;;;;;;;;;;;;;;;3.71;66.55;99690.50;4405703;32;33173;-83
2023/12/11 02:01:13;;;;;;;;;;;;;;;3.27;68.01;99690.34;4383595;32;34155;-82
2023/12/11 02:03:41;;;;;;;;;;;;;;;3.23;68.26;99688.69;4404399;32;33060;-82
2023/12/11 02:06:09;;;;;;;;;;;;;;;3.37;67.76;99688.47;4397994;32;34892;-82
2023/12/11 02:08:36;;;;;;;;;;;;;;;3.18;68.09;99684.41;4375472;32;33392;-82
2023/12/11 02:11:04;;;;;;;;;;;;;;;3.05;68.63;99688.97;4390716;32;33765;-83
2023/12/11 02:13:32;;;;;;;;;;;;;;;3.18;68.06;99681.78;4374694;32;32322;-82
2023/12/11 02:15:59;;;;;;;;;;;;;;;2.94;68.72;99680.41;4398673;32;33865;-83
2023/12/11 02:18:27;;;;;;;;;;;;;;;2.81;69.55;99678.00;4404602;32;33078;-81
2023/12/11 02:20:54;;;;;;;;;;;;;;;3.02;69.40;99681.16;4402680;32;33669;-82
2023/12/11 02:23:30;;;;;;;;;;;;;;;3.40;67.93;99682.31;4420427;32;34447;-82
2023/12/11 02:26:27;;;;;;;;;;;;;;;3.01;69.00;99677.69;4408589;32;33401;-82
2023/12/11 02:28:54;;;;;;;;;;;;;;;3.08;68.44;99687.13;4407675;32;34214;-82
2023/12/11 02:31:22;;;;;;;;;;;;;;;3.24;68.28;99687.78;4419177;32;34228;-82
2023/12/11 02:33:49;;;;;;;;;;;;;;;3.21;68.00;99680.00;4406554;32;33153;-81
2023/12/11 02:36:17;;;;;;;;;;;;;;;3.41;67.38;99686.66;4419565;32;33926;-81
2023/12/11 02:38:44;;;;;;;;;;;;;;;3.36;67.24;99680.63;4419924;32;34665;-80
2023/12/11 02:41:12;;;;;;;;;;;;;;;2.95;68.38;99674.34;4420159;32;34488;-80
2023/12/11 02:43:39;;;;;;;;;;;;;;;3.07;68.60;99661.94;4405168;32;33294;-80
2023/12/11 02:46:07;;;;;;;;;;;;;;;2.98;68.66;99650.78;4406143;32;34450;-80
2023/12/11 02:48:34;;;;;;;;;;;;;;;2.97;68.49;99644.72;4420604;32;34311;-80
2023/12/11 02:51:02;;;;;;;;;;;;;;;2.57;70.10;99634.03;4407016;32;33025;-79
2023/12/11 02:53:30;;;;;;;;;;;;;;;2.66;69.39;99612.16;4419385;32;33502;-80
2023/12/11 02:55:57;;;;;;;;;;;;;;;3.16;67.62;99613.13;4420032;32;34258;-80
2023/12/11 02:58:25;;;;;;;;;;;;;;;3.00;68.51;99625.56;4406978;32;33831;-80
2023/12/11 03:00:52;;;;;;;;;;;;;;;3.01;67.72;99624.69;4406422;32;33543;-80
2023/12/11 03:03:20;;;;;;;;;;;;;;;3.18;67.97;99617.44;4406715;32;32058;-80
2023/12/11 03:05:47;;;;;;;;;;;;;;;2.92;68.09;99624.81;4408664;32;33229;-80
2023/12/11 03:08:15;;;;;;;;;;;;;;;2.98;68.66;99622.09;4409560;32;33566;-79
2023/12/11 03:10:42;;;;;;;;;;;;;;;3.03;67.94;99628.09;4407106;32;33477;-80
2023/12/11 03:13:12;;;;;;;;;;;;;;;3.32;67.29;99625.91;4407137;32;32746;-81
2023/12/11 03:15:40;;;;;;;;;;;;;;;3.24;67.64;99626.91;4421700;32;33942;-80
2023/12/11 03:18:07;;;;;;;;;;;;;;;3.12;67.36;99611.44;4420136;32;33656;-80
2023/12/11 03:20:35;;;;;;;;;;;;;;;3.02;68.53;99616.81;4422187;32;34086;-80
2023/12/11 03:23:03;;;;;;;;;;;;;;;3.36;67.60;99615.41;4422048;32;32969;-80
2023/12/11 03:25:30;;;;;;;;;;;;;;;3.16;67.85;99616.59;4409241;32;32929;-80
2023/12/11 03:27:58;;;;;;;;;;;;;;;3.26;68.09;99617.31;4420799;32;33628;-80
2023/12/11 03:30:26;;;;;;;;;;;;;;;3.26;68.35;99618.16;4401439;32;32745;-79
2023/12/11 03:32:54;;;;;;;;;;;;;;;3.38;67.88;99618.84;4409335;32;32143;-80
2023/12/11 03:35:21;;;;;;;;;;;;;;;3.63;66.67;99614.91;4408594;32;33943;-80
2023/12/11 03:37:49;;;;;;;;;;;;;;;3.48;67.23;99630.84;4421233;32;34295;-80
2023/12/11 03:40:16;;;;;;;;;;;;;;;3.50;67.21;99626.47;4407587;32;32846;-80
2023/12/11 03:42:43;;;;;;;;;;;;;;;3.52;67.16;99622.09;4408512;32;33264;-81
2023/12/11 03:45:13;;;;;;;;;;;;;;;3.52;67.49;99616.88;4421967;32;34500;-80
2023/12/11 03:47:41;;;;;;;;;;;;;;;3.67;67.19;99616.56;4420892;32;35412;-80
2023/12/11 03:50:09;;;;;;;;;;;;;;;3.92;65.88;99613.50;4408582;32;33094;-80
2023/12/11 03:52:36;;;;;;;;;;;;;;;3.85;66.18;99621.47;4408803;32;32941;-80
2023/12/11 03:55:04;;;;;;;;;;;;;;;3.79;66.18;99616.31;4396643;32;33256;-80
2023/12/11 03:57:31;;;;;;;;;;;;;;;3.29;67.74;99632.91;4422153;32;34164;-81
2023/12/11 03:59:59;;;;;;;;;;;;;;;3.55;67.70;99622.00;4421120;32;34858;-82
2023/12/11 04:02:27;;;;;;;;;;;;;;;3.50;67.83;99636.91;4409385;32;32392;-81
2023/12/11 04:04:55;;;;;;;;;;;;;;;3.66;67.61;99646.19;4417801;32;32560;-82
2023/12/11 04:07:23;;;;;;;;;;;;;;;3.80;67.16;99644.19;4409244;32;33195;-82
2023/12/11 04:09:50;;;;;;;;;;;;;;;3.64;67.59;99641.88;4408673;32;33560;-82
2023/12/11 04:12:18;;;;;;;;;;;;;;;3.49;68.21;99636.03;4421477;32;32585;-81
2023/12/11 04:14:45;;;;;;;;;;;;;;;3.57;68.49;99635.91;4406906;32;33555;-81
2023/12/11 04:17:13;;;;;;;;;;;;;;;3.46;68.24;99622.16;4409064;32;33503;-82
2023/12/11 04:19:40;;;;;;;;;;;;;;;3.59;67.89;99623.69;4416599;32;34746;-81
2023/12/11 04:22:08;;;;;;;;;;;;;;;3.87;67.18;99610.13;4421323;32;33300;-81
2023/12/11 04:24:35;;;;;;;;;;;;;;;4.18;65.70;99605.09;4407165;32;32957;-80
2023/12/11 04:27:03;;;;;;;;;;;;;;;4.01;66.12;99608.09;4420305;32;35038;-80
2023/12/11 04:29:31;;;;;;;;;;;;;;;3.94;66.24;99611.69;4421818;32;33764;-80
2023/12/11 04:31:58;;;;;;;;;;;;;;;3.77;66.56;99607.69;4421002;32;33105;-80
2023/12/11 04:34:26;;;;;;;;;;;;;;;3.44;67.49;99603.09;4421770;32;34848;-80
2023/12/11 04:36:53;;;;;;;;;;;;;;;3.45;68.32;99596.97;4420872;32;34155;-80
2023/12/11 04:39:21;;;;;;;;;;;;;;;3.54;67.95;99587.22;4421227;32;34269;-80
2023/12/11 04:41:49;;;;;;;;;;;;;;;3.67;67.43;99572.19;4421114;32;33885;-80
2023/12/11 04:44:16;;;;;;;;;;;;;;;3.42;68.08;99584.84;4407766;32;33048;-80
2023/12/11 04:46:43;;;;;;;;;;;;;;;3.28;69.09;99587.69;4421189;32;34937;-80
2023/12/11 04:49:11;;;;;;;;;;;;;;;3.40;69.05;99590.97;4415417;32;32965;-80
2023/12/11 04:51:39;;;;;;;;;;;;;;;3.45;68.85;99583.91;4421467;32;33673;-80
2023/12/11 04:54:06;;;;;;;;;;;;;;;3.71;67.65;99586.91;4408457;32;33971;-80
2023/12/11 04:56:36;;;;;;;;;;;;;;;3.55;68.01;99582.84;4421620;32;33678;-79
2023/12/11 04:59:04;;;;;;;;;;;;;;;3.46;68.92;99576.03;4408138;32;33312;-80
2023/12/11 05:01:32;;;;;;;;;;;;;;;3.73;68.06;99581.66;4408701;32;32928;-80
2023/12/11 05:03:59;;;;;;;;;;;;;;;4.01;65.91;99597.63;4408442;32;34198;-80
2023/12/11 05:06:27;;;;;;;;;;;;;;;3.95;66.96;99603.84;4419931;32;34154;-79
2023/12/11 05:08:54;;;;;;;;;;;;;;;3.64;68.06;99602.72;4419853;32;33829;-80
2023/12/11 05:11:22;;;;;;;;;;;;;;;3.67;67.77;99600.91;4407571;32;32042;-80
2023/12/11 05:13:49;;;;;;;;;;;;;;;3.88;67.43;99596.16;4419439;32;34389;-80
2023/12/11 05:16:17;;;;;;;;;;;;;;;3.68;68.03;99591.31;4408363;32;34222;-80
2023/12/11 05:18:44;;;;;;;;;;;;;;;3.25;69.20;99587.75;4420736;32;36356;-80
2023/12/11 05:21:12;;;;;;;;;;;;;;;2.99;70.19;99588.19;4407888;32;32803;-80
2023/12/11 05:23:39;;;;;;;;;;;;;;;3.32;69.59;99593.69;4408271;32;33121;-80
2023/12/11 05:26:07;;;;;;;;;;;;;;;3.25;69.81;99589.50;4405772;32;34030;-81
2023/12/11 05:28:34;;;;;;;;;;;;;;;3.38;69.91;99577.97;4405852;32;33678;-80
2023/12/11 05:31:02;;;;;;;;;;;;;;;3.62;68.58;99597.53;4414258;32;31837;-80
2023/12/11 05:33:30;;;;;;;;;;;;;;;3.29;69.49;99604.22;4389599;32;33983;-81
2023/12/11 05:35:57;;;;;;;;;;;;;;;3.19;70.17;99595.69;4420877;32;34989;-81
2023/12/11 05:38:25;;;;;;;;;;;;;;;3.25;70.08;99597.31;4407847;32;32641;-80
2023/12/11 05:40:52;;;;;;;;;;;;;;;3.38;70.12;99571.88;4420869;32;32909;-81
2023/12/11 05:43:20;;;;;;;;;;;;;;;3.39;70.26;99563.16;4419410;32;34692;-81
2023/12/11 05:45:47;;;;;;;;;;;;;;;2.76;71.56;99556.41;4421077;32;34271;-83
2023/12/11 05:48:15;;;;;;;;;;;;;;;3.21;70.74;99539.09;4420520;32;34375;-81
2023/12/11 05:50:43;;;;;;;;;;;;;;;3.27;70.83;99523.31;4408827;32;32454;-81
2023/12/11 05:53:10;;;;;;;;;;;;;;;3.01;71.91;99552.50;4421289;32;33634;-81
2023/12/11 05:55:38;;;;;;;;;;;;;;;3.15;70.79;99586.19;4421436;32;34548;-81
2023/12/11 05:58:05;;;;;;;;;;;;;;;3.32;70.66;99568.50;4398275;32;33276;-81
2023/12/11 06:00:32;;;;;;;;;;;;;;;3.23;70.82;99563.44;4392995;32;32071;-81
2023/12/11 06:03:00;;;;;;;;;;;;;;;2.71;72.91;99590.37;4406256;32;33840;-81
2023/12/11 06:05:28;;;;;;;;;;;;;;;3.07;71.65;99588.91;4419689;32;33409;-81
2023/12/11 06:07:55;;;;;;;;;;;;;;;3.51;70.42;99578.56;4405447;32;32882;-81
2023/12/11 06:10:23;;;;;;;;;;;;;;;3.57;69.93;99568.91;4398533;32;32197;-80
2023/12/11 06:12:50;;;;;;;;;;;;;;;3.40;70.36;99555.28;4407507;32;33806;-79
2023/12/11 06:15:18;;;;;;;;;;;;;;;3.42;70.56;99568.28;4410281;32;32534;-80
2023/12/11 06:17:46;;;;;;;;;;;;;;;3.25;71.19;99573.84;4418808;32;34120;-80
2023/12/11 06:20:13;;;;;;;;;;;;;;;3.51;70.09;99570.75;4385390;32;32304;-79
2023/12/11 06:22:41;;;;;;;;;;;;;;;3.57;69.86;99594.12;4380612;32;34521;-80
2023/12/11 06:25:08;;;;;;;;;;;;;;;3.66;69.43;99604.41;4419444;32;34025;-78
2023/12/11 06:27:36;;;;;;;;;;;;;;;3.94;68.58;99616.91;4418332;32;34765;-83
2023/12/11 06:30:06;;;;;;;;;;;;;;;3.81;69.29;99630.22;4418931;32;33441;-81
2023/12/11 06:32:36;;;;;;;;;;;;;;;3.60;69.79;99630.63;4397309;32;32868;-81
2023/12/11 06:35:04;;;;;;;;;;;;;;;3.97;68.89;99624.72;4403737;32;32972;-81
2023/12/11 06:37:32;;;;;;;;;;;;;;;3.98;69.05;99627.28;4398156;32;32903;-81
2023/12/11 06:40:00;;;;;;;;;;;;;;;3.49;70.74;99627.34;4405338;32;32204;-80
2023/12/11 06:42:27;;;;;;;;;;;;;;;3.86;69.74;99609.25;4410270;32;33542;-80
2023/12/11 06:44:54;;;;;;;;;;;;;;;3.97;69.36;99583.75;4396240;32;33930;-80
2023/12/11 06:47:22;;;;;;;;;;;;;;;3.67;70.12;99572.19;4404741;32;32839;-81
2023/12/11 06:49:50;;;;;;;;;;;;;;;3.60;70.84;99568.81;4405879;32;32057;-81
2023/12/11 06:52:17;;;;;;;;;;;;;;;3.72;70.38;99565.13;4416117;32;33285;-81
2023/12/11 06:54:45;;;;;;;;;;;;;;;3.49;71.66;99569.91;4416833;32;33994;-80
2023/12/11 06:57:13;;;;;;;;;;;;;;;3.64;70.98;99574.84;4393924;32;33355;-80
2023/12/11 06:59:40;;;;;;;;;;;;;;;3.06;73.13;99602.00;4409375;32;33006;-80
2023/12/11 07:02:08;;;;;;;;;;;;;;;3.41;72.16;99603.13;4417351;32;33825;-79
2023/12/11 07:04:35;;;;;;;;;;;;;;;3.95;70.24;99580.34;4403729;32;33096;-80
2023/12/11 07:07:03;;;;;;;;;;;;;;;3.39;71.66;99581.41;4405155;32;34294;-80
2023/12/11 07:09:31;;;;;;;;;;;;;;;3.75;71.05;99564.19;4416377;32;32950;-80
2023/12/11 07:11:59;;;;;;;;;;;;;;;3.85;70.48;99577.06;4417193;32;32540;-79
2023/12/11 07:14:26;;;;;;;;;;;;;;;3.49;71.59;99590.81;4403441;32;32706;-80
2023/12/11 07:16:54;;;;;;;;;;;;;;;3.39;71.58;99602.31;4408890;32;34645;-80
2023/12/11 07:19:21;;;;;;;;;;;;;;;3.79;70.30;99600.66;4405175;32;33439;-80
2023/12/11 07:21:49;;;;;;;;;;;;;;;3.63;71.44;99604.47;4418109;32;33036;-80
2023/12/11 07:24:17;;;;;;;;;;;;;;;3.77;70.10;99610.28;4416705;32;34254;-80
2023/12/11 07:26:44;;;;;;;;;;;;;;;4.17;69.35;99599.03;4414093;32;32821;-80
2023/12/11 07:29:12;;;;;;;;;;;;;;;4.02;69.39;99592.38;4416624;32;33266;-80
2023/12/11 07:31:39;;;;;;;;;;;;;;;4.19;69.16;99584.19;4416662;32;34141;-80
2023/12/11 07:34:07;;;;;;;;;;;;;;;4.17;69.43;99600.78;4404503;32;32961;-80
2023/12/11 07:36:34;;;;;;;;;;;;;;;4.19;69.45;99618.16;4415414;32;33914;-80
2023/12/11 07:39:03;;;;;;;;;;;;;;;4.11;70.42;99605.25;4403438;32;32716;-80
2023/12/11 07:41:31;;;;;;;;;;;;;;;4.33;68.89;99596.97;4402209;32;32910;-79
2023/12/11 07:43:58;;;;;;;;;;;;;;;4.65;68.42;99598.00;4404414;32;33629;-80
2023/12/11 07:46:26;;;;;;;;;;;;;;;4.33;69.21;99595.22;4419344;32;32637;-80
2023/12/11 07:48:53;;;;;;;;;;;;;;;4.73;67.98;99586.47;4406091;32;32534;-81
2023/12/11 07:51:24;;;;;;;;;;;;;;;5.08;66.90;99595.22;4422161;32;34055;-80
2023/12/11 07:53:53;;;;;;;;;;;;;;;5.02;66.73;99590.13;4406342;32;33551;-80
2023/12/11 07:56:20;;;;;;;;;;;;;;;4.77;67.45;99582.03;4400730;32;34294;-80
2023/12/11 07:58:48;;;;;;;;;;;;;;;4.68;67.27;99566.53;4407892;32;33760;-80
2023/12/11 08:01:17;;;;;;;;;;;;;;;4.87;67.09;99568.69;4406329;32;34716;-80
2023/12/11 08:03:45;;;;;;;;;;;;;;;4.88;66.82;99573.00;4407708;32;33590;-80
2023/12/11 08:06:12;;;;;;;;;;;;;;;4.51;67.89;99569.53;4413534;32;33416;-80
2023/12/11 08:08:43;;;;;;;;;;;;;;;4.58;67.51;99573.75;4409751;32;33354;-81
2023/12/11 08:11:21;;;;;;;;;;;;;;;4.51;68.39;99566.91;4407972;32;33153;-81
2023/12/11 08:13:48;;;;;;;;;;;;;;;4.58;68.00;99545.84;4383569;32;33136;-81
2023/12/11 08:16:16;;;;;;;;;;;;;;;4.48;68.75;99538.25;4418886;32;34434;-80
2023/12/11 08:18:44;;;;;;;;;;;;;;;4.57;68.01;99536.28;4409061;32;32562;-80
2023/12/11 08:21:12;;;;;;;;;;;;;;;4.60;68.34;99532.72;4421116;32;35430;-81
2023/12/11 08:23:42;;;;;;;;;;;;;;;4.19;69.56;99526.69;4408119;32;32840;-81
2023/12/11 08:26:10;;;;;;;;;;;;;;;4.29;69.76;99509.91;4421926;32;32548;-81
2023/12/11 08:28:37;;;;;;;;;;;;;;;4.00;71.10;99494.91;4414175;32;33098;-81
2023/12/11 08:31:05;;;;;;;;;;;;;;;3.83;71.83;99492.63;4419767;32;33807;-81
2023/12/11 08:33:32;;;;;;;;;;;;;;;4.23;70.06;99496.16;4413954;32;33471;-82
2023/12/11 08:36:00;;;;;;;;;;;;;;;4.17;70.07;99477.97;4420555;32;34693;-81
2023/12/11 08:38:27;;;;;;;;;;;;;;;4.01;71.31;99472.22;4421459;32;32733;-81
2023/12/11 08:40:55;;;;;;;;;;;;;;;4.19;70.80;99484.88;4408852;32;217614;-81
2023/12/11 08:43:22;;;;;;;;;;;;;;;4.13;70.53;99482.44;4400695;32;34664;-81
2023/12/11 08:45:50;;;;;;;;;;;;;;;4.27;70.02;99489.91;4408380;32;33065;-81
2023/12/11 08:48:17;;;;;;;;;;;;;;;4.52;69.16;99492.84;4420713;32;33611;-81
2023/12/11 08:50:46;;;;;;;;;;;;;;;4.51;69.61;99492.00;4420059;32;33944;-81
2023/12/11 08:53:14;;;;;;;;;;;;;;;4.56;69.00;99494.50;4421252;32;34179;-81
2023/12/11 08:55:41;;;;;;;;;;;;;;;4.48;69.68;99514.72;4421085;32;34416;-81
2023/12/11 08:58:09;;;;;;;;;;;;;;;4.79;68.94;99518.28;4420953;32;33183;-81
2023/12/11 09:00:36;;;;;;;;;;;;;;;4.49;69.40;99529.50;4408324;32;33626;-81
2023/12/11 09:03:04;;;;;;;;;;;;;;;4.70;69.52;99523.78;4406982;32;34081;-81
2023/12/11 09:05:32;;;;;;;;;;;;;;;5.21;67.67;99512.00;4408548;32;33770;-81
2023/12/11 09:08:00;;;;;;;;;;;;;;;5.10;67.89;99517.53;4421278;32;33627;-81
2023/12/11 09:10:27;;;;;;;;;;;;;;;5.00;68.18;99495.12;4421660;32;33639;-81
2023/12/11 09:12:55;;;;;;;;;;;;;;;4.75;68.50;99489.66;4406453;32;33415;-81
2023/12/11 09:15:23;;;;;;;;;;;;;;;4.58;69.69;99490.06;4406340;32;33134;-81
2023/12/11 09:17:50;;;;;;;;;;;;;;;4.65;68.96;99493.38;4407982;32;33427;-81
2023/12/11 09:20:18;;;;;;;;;;;;;;;5.17;68.01;99490.28;4420293;32;33555;-82
2023/12/11 09:22:46;;;;;;;;;;;;;;;5.37;67.14;99488.00;4421182;32;33827;-81
2023/12/11 09:25:14;;;;;;;;;;;;;;;5.21;67.07;99496.31;4407510;32;33828;-81
2023/12/11 09:27:41;;;;;;;;;;;;;;;5.27;66.91;99506.59;4407629;32;31693;-81
2023/12/11 09:30:09;;;;;;;;;;;;;;;5.52;66.16;99493.72;4420948;32;33595;-81
2023/12/11 09:32:37;;;;;;;;;;;;;;;5.33;66.75;99494.22;4420021;32;33427;-81
2023/12/11 09:35:05;;;;;;;;;;;;;;;4.99;67.53;99477.72;4420651;32;34108;-81
2023/12/11 09:37:32;;;;;;;;;;;;;;;4.86;68.20;99471.94;4422665;32;32946;-81
2023/12/11 09:40:00;;;;;;;;;;;;;;;5.28;67.28;99480.41;4409128;32;33724;-81
2023/12/11 09:42:28;;;;;;;;;;;;;;;4.98;68.16;99478.59;4420700;32;34346;-81
2023/12/11 09:44:56;;;;;;;;;;;;;;;4.91;68.67;99475.28;4420951;32;33716;-81
2023/12/11 09:47:27;;;;;;;;;;;;;;;5.23;67.99;99471.81;4408503;32;32653;-81
2023/12/11 09:49:55;;;;;;;;;;;;;;;5.18;68.30;99473.72;4419450;32;33990;-81
2023/12/11 09:52:23;;;;;;;;;;;;;;;5.46;67.07;99478.16;4421016;32;33445;-81
2023/12/11 09:54:50;;;;;;;;;;;;;;;5.64;66.82;99477.66;4420368;32;34171;-81
2023/12/11 09:57:18;;;;;;;;;;;;;;;5.56;66.73;99466.56;4421235;32;34152;-81
2023/12/11 09:59:45;;;;;;;;;;;;;;;5.64;66.29;99472.41;4419627;32;34404;-81
2023/12/11 10:02:14;;;;;;;;;;;;;;;5.77;65.70;99465.91;4421360;32;35047;-81
2023/12/11 10:05:01;;;;;;;;;;;;;;;5.43;66.15;99462.56;4420369;32;33630;-81
2023/12/11 10:07:30;;;;;;;;;;;;;;;5.59;66.65;99469.06;4422825;32;33013;-81
2023/12/11 10:09:59;;;;;;;;;;;;;;;5.80;64.91;99476.31;4420585;32;34061;-82
2023/12/11 10:12:30;;;;;;;;;;;;;;;5.25;66.80;99470.00;4417731;32;33658;-82
2023/12/11 10:14:59;;;;;;;;;;;;;;;5.17;67.45;99469.34;4408665;32;32792;-81
2023/12/11 10:17:28;;;;;;;;;;;;;;;5.08;67.73;99460.00;4420727;32;32111;-82
2023/12/11 10:19:55;;;;;;;;;;;;;;;5.15;66.89;99458.06;4407939;32;33295;-81
2023/12/11 10:22:27;;;;;;;;;;;;;;;5.33;67.39;99452.34;4419260;32;33830;-82
2023/12/11 10:24:55;;;;;;;;;;;;;;;5.25;67.73;99464.78;4414827;32;33894;-82
2023/12/11 10:27:23;;;;;;;;;;;;;;;5.13;67.89;99478.22;4420352;32;33391;-82
2023/12/11 10:30:14;;;;;;;;;;;;;;;5.26;68.08;99463.88;4400899;32;33849;-81
2023/12/11 10:32:42;;;;;;;;;;;;;;;5.65;66.93;99447.97;4395107;32;33138;-81
2023/12/11 10:35:09;;;;;;;;;;;;;;;5.40;67.60;99451.25;4420881;32;34413;-82
2023/12/11 10:37:37;;;;;;;;;;;;;;;5.80;66.10;99436.16;4419697;32;33943;-81
2023/12/11 10:40:05;;;;;;;;;;;;;;;5.85;66.34;99424.63;4407920;32;33314;-81
2023/12/11 10:42:38;;;;;;;;;;;;;;;5.76;66.37;99408.34;4406959;32;33317;-81
2023/12/11 10:45:05;;;;;;;;;;;;;;;5.75;66.84;99404.84;4419258;32;33817;-81
2023/12/11 10:47:33;;;;;;;;;;;;;;;5.70;66.32;99395.41;4408007;32;32251;-82
2023/12/11 10:50:02;;;;;;;;;;;;;;;5.48;66.54;99387.34;4419928;32;33970;-82
2023/12/11 10:52:31;;;;;;;;;;;;;;;5.63;66.08;99403.44;4418984;32;34782;-81
2023/12/11 10:54:59;;;;;;;;;;;;;;;5.39;66.55;99394.56;4407553;32;34333;-82
2023/12/11 10:57:26;;;;;;;;;;;;;;;5.45;67.30;99409.22;4407017;32;32852;-82
2023/12/11 10:59:54;;;;;;;;;;;;;;;5.52;66.56;99425.62;4420182;32;34138;-81
2023/12/11 11:02:21;;;;;;;;;;;;;;;6.18;64.10;99415.81;4419892;32;34171;-81
2023/12/11 11:04:49;;;;;;;;;;;;;;;5.72;65.38;99420.66;4419593;32;34866;-81
2023/12/11 11:07:19;;;;;;;;;;;;;;;5.65;65.67;99421.75;4419635;32;32895;-81
2023/12/11 11:09:50;;;;;;;;;;;;;;;5.81;65.48;99416.91;4421254;32;33794;-82
2023/12/11 11:12:29;;;;;;;;;;;;;;;5.53;66.52;99401.16;4406738;32;33897;-82
2023/12/11 11:14:57;;;;;;;;;;;;;;;5.97;65.21;99401.59;4394430;32;34002;-81
2023/12/11 11:17:24;;;;;;;;;;;;;;;5.93;65.21;99384.25;4419762;32;33653;-81
2023/12/11 11:20:12;;;;;;;;;;;;;;;5.66;65.89;99373.69;4420056;32;34366;-81
2023/12/11 11:22:40;;;;;;;;;;;;;;;5.97;65.79;99364.91;4420529;32;34967;-81
2023/12/11 11:25:26;;;;;;;;;;;;;;;5.92;65.73;99372.91;4406447;32;34284;-81
2023/12/11 11:27:54;;;;;;;;;;;;;;;5.78;65.91;99364.59;4408892;32;32706;-81
2023/12/11 11:30:40;;;;;;;;;;;;;;;5.27;67.39;99355.66;4408721;32;33309;-81
2023/12/11 11:33:11;;;;;;;;;;;;;;;5.45;67.52;99340.28;4422003;32;34122;-81
2023/12/11 11:35:45;;;;;;;;;;;;;;;5.52;67.67;99326.12;4421651;32;33136;-82
2023/12/11 11:38:13;;;;;;;;;;;;;;;5.86;66.51;99332.00;4403827;32;33332;-81
2023/12/11 11:40:43;;;;;;;;;;;;;;;5.52;67.30;99336.59;4408701;32;32987;-81
2023/12/11 11:43:11;;;;;;;;;;;;;;;5.45;68.12;99335.06;4407602;32;33690;-82
2023/12/11 11:45:38;;;;;;;;;;;;;;;5.77;67.15;99334.06;4411175;32;32212;-82
2023/12/11 11:48:07;;;;;;;;;;;;;;;5.71;66.54;99336.88;4420641;32;33441;-81
2023/12/11 11:50:35;;;;;;;;;;;;;;;5.85;66.48;99327.69;4422053;32;33773;-82
2023/12/11 11:53:10;;;;;;;;;;;;;;;6.04;66.71;99321.88;4422357;32;33845;-81
2023/12/11 11:55:38;;;;;;;;;;;;;;;5.99;66.32;99315.94;4409649;32;34454;-81
2023/12/11 11:58:13;;;;;;;;;;;;;;;6.41;65.22;99317.13;4409746;32;33112;-82
2023/12/11 12:00:40;;;;;;;;;;;;;;;6.00;66.80;99312.41;4420841;32;33929;-82
2023/12/11 12:03:08;;;;;;;;;;;;;;;6.04;66.48;99319.25;4420038;32;34996;-81
2023/12/11 12:05:36;;;;;;;;;;;;;;;6.13;66.23;99321.59;4421227;32;33872;-82
2023/12/11 12:08:08;;;;;;;;;;;;;;;6.10;66.47;99335.63;4421680;32;35421;-82
2023/12/11 12:10:35;;;;;;;;;;;;;;;6.54;65.30;99342.91;4422133;32;33748;-82
2023/12/11 12:13:04;;;;;;;;;;;;;;;6.80;64.73;99353.34;4412850;32;33147;-82
2023/12/11 12:15:32;;;;;;;;;;;;;;;6.69;64.73;99368.59;4409105;32;33213;-82
2023/12/11 12:18:07;;;;;;;;;;;;;;;7.17;63.48;99358.13;4416441;32;34185;-82
2023/12/11 12:20:34;;;;;;;;;;;;;;;7.21;63.27;99361.47;4408630;32;33492;-82
2023/12/11 12:23:03;;;;;;;;;;;;;;;7.23;62.93;99357.06;4420974;32;33997;-82
2023/12/11 12:25:31;;;;;;;;;;;;;;;7.25;62.99;99349.09;4400588;32;33333;-82
2023/12/11 12:28:12;;;;;;;;;;;;;;;7.16;63.22;99345.03;4408420;32;33348;-82
2023/12/11 12:30:40;;;;;;;;;;;;;;;7.29;62.66;99346.31;4407156;32;32828;-81
2023/12/11 12:33:09;;;;;;;;;;;;;;;7.34;63.01;99352.25;4420093;32;33668;-81
2023/12/11 12:35:37;;;;;;;;;;;;;;;7.32;62.60;99347.97;4413703;32;33704;-82
2023/12/11 12:38:05;;;;;;;;;;;;;;;7.06;63.57;99339.28;4400064;32;32222;-82
2023/12/11 12:40:33;;;;;;;;;;;;;;;6.90;64.07;99330.25;4420962;32;33553;-81
2023/12/11 12:43:09;;;;;;;;;;;;;;;6.95;64.28;99325.69;4419058;32;32516;-82
2023/12/11 12:45:37;;;;;;;;;;;;;;;7.27;63.14;99331.53;4421085;32;34169;-81
2023/12/11 12:48:04;;;;;;;;;;;;;;;7.11;63.18;99326.84;4407538;32;33708;-81
2023/12/11 12:50:33;;;;;;;;;;;;;;;7.24;63.20;99316.75;4408370;32;34234;-81
2023/12/11 12:53:09;;;;;;;;;;;;;;;7.18;63.62;99316.97;4420133;32;33746;-82
2023/12/11 12:55:39;;;;;;;;;;;;;;;7.11;63.65;99310.22;4420479;32;34099;-82
2023/12/11 12:58:07;;;;;;;;;;;;;;;6.58;65.25;99299.94;4396192;32;32887;-82
2023/12/11 13:00:36;;;;;;;;;;;;;;;6.91;64.49;99293.47;4407219;32;34092;-82
2023/12/11 13:03:07;;;;;;;;;;;;;;;6.72;64.69;99297.66;4420988;32;34652;-82